Time;durP1;ratioP1;P1;durP2;ratioP2;P2;SDS_P1;SDS_P2;PMS_P1;PMS_P2;Temp;Humidity;BMP_temperature;BMP_pressure;BME280_temperature;BME280_humidity;BME280_pressure;Samples;Min_cycle;Max_cycle;Signal;HPM_P1;HPM_P2
2022/12/20 00:00:44;;;;;;;3.40;2.38;;;9.90;99.90;;;;;;5033684;28;20037;-68
2022/12/20 00:03:10;;;;;;;2.55;1.70;;;9.90;99.90;;;;;;5034799;28;20045;-68
2022/12/20 00:06:00;;;;;;;4.43;2.17;;;9.80;99.90;;;;;;5035005;28;20052;-68
2022/12/20 00:08:26;;;;;;;4.32;2.40;;;9.70;99.90;;;;;;5033805;28;20059;-68
2022/12/20 00:10:51;;;;;;;4.55;2.53;;;9.70;99.90;;;;;;5034905;28;20045;-68
2022/12/20 00:13:17;;;;;;;3.38;1.73;;;9.70;99.90;;;;;;5033572;28;20491;-68
2022/12/20 00:15:43;;;;;;;6.07;2.45;;;9.60;99.90;;;;;;5035006;28;20124;-68
2022/12/20 00:18:09;;;;;;;17.00;9.90;;;9.60;99.90;;;;;;5035017;28;20037;-68
2022/12/20 00:20:35;;;;;;;6.93;3.08;;;9.50;99.90;;;;;;5034916;28;20045;-68
2022/12/20 00:23:01;;;;;;;5.75;2.58;;;9.50;99.90;;;;;;5034798;28;20547;-68
2022/12/20 00:25:27;;;;;;;5.38;2.88;;;9.60;99.90;;;;;;5033156;28;20041;-68
2022/12/20 00:27:53;;;;;;;7.38;2.85;;;9.70;99.90;;;;;;5032426;28;20388;-68
2022/12/20 00:30:18;;;;;;;4.03;2.50;;;9.60;99.90;;;;;;5034547;28;20049;-69
2022/12/20 00:32:44;;;;;;;3.40;1.95;;;9.70;99.90;;;;;;5034157;28;20033;-68
2022/12/20 00:35:11;;;;;;;5.70;2.50;;;9.80;99.90;;;;;;5033941;28;20412;-68
2022/12/20 00:37:37;;;;;;;3.95;1.80;;;9.90;99.90;;;;;;5031450;28;20045;-68
2022/12/20 00:40:04;;;;;;;2.78;1.73;;;10.00;99.90;;;;;;5016633;28;20055;-68
2022/12/20 00:42:30;;;;;;;3.35;2.33;;;10.00;99.90;;;;;;5030229;28;20088;-69
2022/12/20 00:44:56;;;;;;;4.65;2.20;;;9.90;99.90;;;;;;5034228;28;20053;-68
2022/12/20 00:47:22;;;;;;;8.80;6.00;;;9.70;99.90;;;;;;5033879;28;20044;-68
2022/12/20 00:49:48;;;;;;;2.75;1.60;;;9.60;99.90;;;;;;5033984;28;20041;-69
2022/12/20 00:52:13;;;;;;;4.28;2.10;;;9.70;99.90;;;;;;5033337;28;20069;-68
2022/12/20 00:54:39;;;;;;;2.45;1.23;;;9.60;99.90;;;;;;5033883;28;20425;-68
2022/12/20 00:57:05;;;;;;;2.30;1.40;;;9.80;99.90;;;;;;5033835;28;20132;-68
2022/12/20 00:59:32;;;;;;;2.85;1.33;;;10.00;99.90;;;;;;5033243;28;20037;-68
2022/12/20 01:01:58;;;;;;;2.33;1.45;;;10.00;99.90;;;;;;5033689;28;20090;-68
2022/12/20 01:04:24;;;;;;;3.10;1.30;;;10.00;99.90;;;;;;5033465;28;20041;-68
2022/12/20 01:06:50;;;;;;;3.10;1.35;;;10.00;99.90;;;;;;5033623;28;20072;-68
2022/12/20 01:09:15;;;;;;;4.57;1.30;;;10.00;99.90;;;;;;5033306;28;20128;-68
2022/12/20 01:11:41;;;;;;;2.60;1.35;;;10.00;99.90;;;;;;5034105;28;20131;-68
2022/12/20 01:14:13;;;;;;;2.13;1.30;;;10.10;99.90;;;;;;5033460;28;20061;-68
2022/12/20 01:16:42;;;;;;;3.47;1.52;;;10.10;99.90;;;;;;5033903;28;20038;-68
2022/12/20 01:19:10;;;;;;;2.53;1.30;;;10.10;99.90;;;;;;5033214;28;20065;-68
2022/12/20 01:21:37;;;;;;;2.40;1.08;;;10.10;99.90;;;;;;5033618;28;20037;-68
2022/12/20 01:24:03;;;;;;;1.77;1.25;;;10.10;99.90;;;;;;5033788;28;20049;-68
2022/12/20 01:26:29;;;;;;;3.00;1.55;;;10.20;99.90;;;;;;5033949;28;20112;-68
2022/12/20 01:28:58;;;;;;;7.93;3.80;;;10.20;99.90;;;;;;5032861;28;20703;-68
2022/12/20 01:31:23;;;;;;;7.30;2.95;;;10.10;99.90;;;;;;5033855;28;20045;-68
2022/12/20 01:33:51;;;;;;;4.05;2.13;;;10.10;99.90;;;;;;5031501;28;20493;-68
2022/12/20 01:36:25;;;;;;;6.68;2.35;;;10.10;99.90;;;;;;5032110;28;20602;-68
2022/12/20 01:39:03;;;;;;;6.05;1.70;;;10.10;99.90;;;;;;5033467;28;20048;-68
2022/12/20 01:41:31;;;;;;;4.70;2.03;;;10.10;99.90;;;;;;5033568;28;20057;-68
2022/12/20 01:43:58;;;;;;;4.03;1.77;;;10.20;99.90;;;;;;5033352;28;20049;-68
2022/12/20 01:47:17;;;;;;;7.90;2.03;;;10.20;99.90;;;;;;5033376;28;20033;-68
2022/12/20 01:49:46;;;;;;;10.73;2.50;;;10.30;99.90;;;;;;5030563;28;20139;-68
2022/12/20 01:52:34;;;;;;;2.22;1.40;;;10.30;99.90;;;;;;5033207;28;20030;-68
2022/12/20 01:55:08;;;;;;;6.65;2.65;;;10.30;99.90;;;;;;5032941;28;20087;-69
2022/12/20 01:57:52;;;;;;;6.70;2.42;;;10.30;99.90;;;;;;5033425;28;20044;-68
2022/12/20 02:00:19;;;;;;;6.13;2.00;;;10.30;99.90;;;;;;5025098;28;20046;-69
2022/12/20 02:02:47;;;;;;;7.40;2.53;;;10.20;99.90;;;;;;5033553;28;20114;-68
2022/12/20 02:05:15;;;;;;;3.10;1.30;;;10.10;99.90;;;;;;5031072;28;20045;-69
2022/12/20 02:07:44;;;;;;;5.55;1.85;;;10.10;99.90;;;;;;5013820;28;20396;-68
2022/12/20 02:10:11;;;;;;;3.40;1.20;;;10.10;99.90;;;;;;5018651;28;20049;-68
2022/12/20 02:12:45;;;;;;;3.10;1.38;;;10.10;99.90;;;;;;5036970;28;20030;-68
2022/12/20 02:15:34;;;;;;;2.78;0.90;;;10.10;99.90;;;;;;5037360;28;20080;-68
2022/12/20 02:18:28;;;;;;;2.90;1.20;;;10.20;99.90;;;;;;5035828;28;20041;-68
2022/12/20 02:21:22;;;;;;;7.32;1.95;;;10.20;99.90;;;;;;5036998;28;20044;-68
2022/12/20 02:24:06;;;;;;;7.15;2.58;;;10.20;99.90;;;;;;5036953;28;20045;-68
2022/12/20 02:27:00;;;;;;;4.40;1.63;;;10.20;99.90;;;;;;5036766;28;20083;-68
2022/12/20 02:30:15;;;;;;;2.50;1.00;;;10.30;99.90;;;;;;5036827;28;20504;-68
2022/12/20 02:33:06;;;;;;;3.33;1.15;;;10.30;99.90;;;;;;4998818;28;20114;-68
2022/12/20 02:35:34;;;;;;;1.63;1.00;;;10.20;99.90;;;;;;5036135;28;20037;-69
2022/12/20 02:38:03;;;;;;;2.10;1.40;;;10.20;99.90;;;;;;5036187;28;20527;-68
2022/12/20 02:40:38;;;;;;;2.45;0.90;;;10.20;99.90;;;;;;5035218;28;20037;-68
2022/12/20 02:45:14;;;;;;;1.52;0.85;;;10.20;99.90;;;;;;5036422;28;20071;-68
2022/12/20 02:45:54;;;;;;;2.92;1.27;;;10.20;99.90;;;;;;5016950;28;20133;-68
2022/12/20 02:48:21;;;;;;;4.38;2.33;;;10.00;99.90;;;;;;5029772;28;20033;-68
2022/12/20 02:50:51;;;;;;;7.25;4.05;;;10.10;99.90;;;;;;5036161;28;20462;-68
2022/12/20 02:53:17;;;;;;;5.05;2.10;;;10.10;99.90;;;;;;5036052;28;20116;-68
2022/12/20 02:56:03;;;;;;;4.22;1.63;;;10.20;99.90;;;;;;5036097;28;20095;-68
2022/12/20 02:58:49;;;;;;;2.90;1.13;;;10.20;99.90;;;;;;5020200;28;20204;-68
2022/12/20 03:01:29;;;;;;;5.93;2.60;;;10.30;99.90;;;;;;5023866;28;20041;-68
2022/12/20 03:03:56;;;;;;;2.22;1.55;;;10.30;99.90;;;;;;5035776;28;20045;-68
2022/12/20 03:06:22;;;;;;;3.08;1.30;;;10.30;99.90;;;;;;5035952;28;20037;-69
2022/12/20 03:08:48;;;;;;;10.05;3.05;;;10.20;99.90;;;;;;5033917;28;20042;-68
2022/12/20 03:14:36;;;;;;;7.43;3.30;;;10.20;99.90;;;;;;5035805;28;20036;-68
2022/12/20 03:17:02;;;;;;;10.10;4.85;;;10.20;99.90;;;;;;5035875;28;20518;-68
2022/12/20 03:19:28;;;;;;;8.00;3.38;;;10.20;99.90;;;;;;5035777;28;20366;-68
2022/12/20 03:21:54;;;;;;;5.30;2.38;;;10.20;99.90;;;;;;5035005;28;20045;-69
2022/12/20 03:24:20;;;;;;;3.95;2.15;;;10.30;99.90;;;;;;5034104;28;20037;-68
2022/12/20 03:26:45;;;;;;;4.43;2.17;;;10.30;99.90;;;;;;5035565;28;20041;-68
2022/12/20 03:29:12;;;;;;;6.50;1.98;;;10.40;99.90;;;;;;5034996;28;20041;-68
2022/12/20 03:31:37;;;;;;;3.88;1.38;;;10.30;99.90;;;;;;5032683;28;20049;-68
2022/12/20 03:34:03;;;;;;;6.07;1.75;;;10.30;99.90;;;;;;5035492;28;20041;-68
2022/12/20 03:36:29;;;;;;;2.65;1.30;;;10.30;99.90;;;;;;5035302;28;20054;-68
2022/12/20 03:38:55;;;;;;;3.92;1.58;;;10.30;99.90;;;;;;5035282;28;20553;-68
2022/12/20 03:41:22;;;;;;;4.47;1.17;;;10.30;99.90;;;;;;5035383;28;20511;-68
2022/12/20 03:43:48;;;;;;;3.08;1.40;;;10.30;99.90;;;;;;5035203;28;20056;-68
2022/12/20 03:46:15;;;;;;;3.72;1.65;;;10.30;99.90;;;;;;5031578;28;20091;-68
2022/12/20 03:48:40;;;;;;;3.55;1.80;;;10.40;99.90;;;;;;5034615;28;20049;-68
2022/12/20 03:51:06;;;;;;;3.33;1.30;;;10.50;99.90;;;;;;5034733;28;20578;-68
2022/12/20 03:53:32;;;;;;;2.28;1.20;;;10.50;99.90;;;;;;5034653;28;20404;-69
2022/12/20 03:55:58;;;;;;;3.53;1.40;;;10.60;99.90;;;;;;5029489;28;20038;-68
2022/12/20 03:58:24;;;;;;;2.67;1.40;;;10.50;99.90;;;;;;5035001;28;20040;-69
2022/12/20 04:00:50;;;;;;;3.35;1.50;;;10.50;99.90;;;;;;5034901;28;20084;-69
2022/12/20 04:03:15;;;;;;;3.28;1.25;;;10.50;99.90;;;;;;5034893;28;20037;-69
2022/12/20 04:05:41;;;;;;;3.63;1.20;;;10.50;99.90;;;;;;5034776;28;20396;-69
2022/12/20 04:08:07;;;;;;;3.33;1.70;;;10.50;99.90;;;;;;5034230;28;20037;-69
2022/12/20 04:11:14;;;;;;;2.55;1.35;;;10.50;99.90;;;;;;5034898;28;20141;-69
2022/12/20 04:13:19;;;;;;;4.35;1.00;;;10.60;99.90;;;;;;5034539;28;20045;-69
2022/12/20 04:15:44;;;;;;;1.65;1.10;;;10.50;99.90;;;;;;5034720;28;20124;-68
2022/12/20 04:18:10;;;;;;;3.00;1.00;;;10.50;99.90;;;;;;5033320;28;20494;-69
2022/12/20 04:20:36;;;;;;;2.08;0.93;;;10.50;99.90;;;;;;5034922;28;20120;-68
2022/12/20 04:23:01;;;;;;;3.25;0.90;;;10.40;99.90;;;;;;5034608;28;20041;-68
2022/12/20 04:25:27;;;;;;;2.38;1.10;;;10.30;99.90;;;;;;5034453;28;20121;-69
2022/12/20 04:27:53;;;;;;;1.83;1.10;;;10.20;99.90;;;;;;5034119;28;20219;-68
2022/12/20 04:30:19;;;;;;;3.17;1.17;;;10.10;99.90;;;;;;5034274;28;20408;-69
2022/12/20 04:32:44;;;;;;;2.45;1.40;;;10.10;99.90;;;;;;5034282;28;20065;-68
2022/12/20 04:35:10;;;;;;;5.07;1.60;;;10.00;99.90;;;;;;5033859;28;20112;-69
2022/12/20 04:37:36;;;;;;;5.65;1.80;;;10.10;99.90;;;;;;5033997;28;20187;-68
2022/12/20 04:40:02;;;;;;;3.03;1.67;;;10.30;99.90;;;;;;5034328;28;20492;-68
2022/12/20 04:42:28;;;;;;;3.33;1.40;;;10.40;99.90;;;;;;5034058;28;20052;-68
2022/12/20 04:44:53;;;;;;;2.55;1.13;;;10.40;99.90;;;;;;5022570;28;20526;-69
2022/12/20 04:47:19;;;;;;;4.18;1.52;;;10.50;99.90;;;;;;5030800;28;20029;-69
2022/12/20 04:49:45;;;;;;;4.30;1.85;;;10.50;99.90;;;;;;5033591;28;20100;-68
2022/12/20 04:54:55;;;;;;;3.08;1.10;;;10.50;99.90;;;;;;5033781;28;20053;-69
2022/12/20 04:57:20;;;;;;;5.03;1.98;;;10.60;99.90;;;;;;5033783;28;20492;-69
2022/12/20 04:59:46;;;;;;;4.85;1.20;;;10.50;99.90;;;;;;5032017;28;20045;-68
2022/12/20 05:02:12;;;;;;;3.95;1.60;;;10.60;99.90;;;;;;5033643;28;20043;-69
2022/12/20 05:04:37;;;;;;;3.08;1.75;;;10.60;99.90;;;;;;5033396;28;20037;-69
2022/12/20 05:07:03;;;;;;;2.08;1.15;;;10.60;99.90;;;;;;5033910;28;20044;-69
2022/12/20 05:09:29;;;;;;;2.15;1.15;;;10.50;99.90;;;;;;5033290;28;20049;-69
2022/12/20 05:11:54;;;;;;;2.17;0.90;;;10.50;99.90;;;;;;5033848;28;20041;-69
2022/12/20 05:14:20;;;;;;;3.40;1.27;;;10.50;99.90;;;;;;5032515;28;20045;-69
2022/12/20 05:16:46;;;;;;;2.70;1.20;;;10.40;99.90;;;;;;5033550;28;20451;-69
2022/12/20 05:19:12;;;;;;;4.00;1.30;;;10.30;99.90;;;;;;5031882;28;20069;-69
2022/12/20 05:27:05;;;;;;;3.38;1.17;;;10.40;99.90;;;;;;5014190;28;20045;-69
2022/12/20 05:29:31;;;;;;;1.85;1.00;;;10.30;99.90;;;;;;5013791;28;20501;-68
2022/12/20 05:31:57;;;;;;;3.90;1.27;;;10.30;99.90;;;;;;5013929;28;20026;-69
2022/12/20 05:34:23;;;;;;;3.22;1.10;;;10.40;99.90;;;;;;5014110;28;20072;-69
2022/12/20 05:36:49;;;;;;;1.25;0.82;;;10.40;99.90;;;;;;5020913;28;20046;-69
2022/12/20 05:39:15;;;;;;;3.72;0.95;;;10.50;99.90;;;;;;5012889;28;20049;-68
2022/12/20 05:41:40;;;;;;;5.38;1.00;;;10.50;99.90;;;;;;5023015;28;20041;-69
2022/12/20 05:44:06;;;;;;;4.20;1.00;;;10.50;99.90;;;;;;5031561;28;20041;-69
2022/12/20 05:46:32;;;;;;;5.05;1.23;;;10.50;99.90;;;;;;5037179;28;20033;-68
2022/12/20 05:48:58;;;;;;;1.98;0.98;;;10.40;99.90;;;;;;5037083;28;20041;-70
2022/12/20 05:51:24;;;;;;;5.57;1.20;;;10.40;99.90;;;;;;5037341;28;20046;-68
2022/12/20 05:53:50;;;;;;;1.45;1.05;;;10.40;99.90;;;;;;5035932;28;20488;-70
2022/12/20 05:56:16;;;;;;;3.80;1.15;;;10.40;99.90;;;;;;5035992;28;20136;-69
2022/12/20 05:58:42;;;;;;;2.97;1.10;;;10.50;99.90;;;;;;5030727;28;20440;-69
2022/12/20 06:01:09;;;;;;;1.85;0.98;;;10.50;99.90;;;;;;5032785;28;20065;-70
2022/12/20 06:03:36;;;;;;;1.60;0.98;;;10.50;99.90;;;;;;5024709;28;20038;-68
2022/12/20 06:06:02;;;;;;;3.50;1.02;;;10.60;99.90;;;;;;5029641;28;20045;-69
2022/12/20 06:08:28;;;;;;;3.75;0.95;;;10.50;99.90;;;;;;5030923;28;20033;-69
2022/12/20 06:10:53;;;;;;;6.45;1.65;;;10.60;99.90;;;;;;5037076;28;20045;-68
2022/12/20 06:13:21;;;;;;;2.13;1.33;;;10.50;99.90;;;;;;5035959;28;20550;-69
2022/12/20 06:15:47;;;;;;;2.65;1.75;;;10.60;99.90;;;;;;5036625;28;20072;-68
2022/12/20 06:18:12;;;;;;;1.85;1.05;;;10.50;99.90;;;;;;5036343;28;20072;-68
2022/12/20 06:20:38;;;;;;;2.47;1.10;;;10.50;99.90;;;;;;5036752;28;20412;-69
2022/12/20 06:23:04;;;;;;;2.55;1.02;;;10.50;99.90;;;;;;5037083;28;20465;-68
2022/12/20 06:25:30;;;;;;;3.67;2.10;;;10.50;99.90;;;;;;5037139;28;20068;-68
2022/12/20 06:27:56;;;;;;;2.47;1.27;;;10.50;99.90;;;;;;5036922;28;20044;-69
2022/12/20 06:30:22;;;;;;;2.38;1.48;;;10.40;99.90;;;;;;5036820;28;20052;-69
2022/12/20 06:32:48;;;;;;;3.70;1.83;;;10.60;99.90;;;;;;5037086;28;20048;-68
2022/12/20 06:35:14;;;;;;;1.85;1.08;;;10.60;99.90;;;;;;5036730;28;20124;-69
2022/12/20 06:37:40;;;;;;;3.72;1.50;;;10.60;99.90;;;;;;5036973;28;20034;-69
2022/12/20 06:40:11;;;;;;;2.63;1.08;;;10.60;99.90;;;;;;5036735;28;20048;-69
2022/12/20 06:42:37;;;;;;;3.78;1.10;;;10.60;99.90;;;;;;5036680;28;20029;-69
2022/12/20 06:45:04;;;;;;;3.65;1.25;;;10.60;99.90;;;;;;5035381;28;20045;-69
2022/12/20 06:47:30;;;;;;;4.00;1.23;;;10.60;99.90;;;;;;5036602;28;20033;-69
2022/12/20 06:49:55;;;;;;;1.75;1.13;;;10.60;99.90;;;;;;5036434;28;20080;-69
2022/12/20 06:52:21;;;;;;;4.97;2.10;;;10.60;99.90;;;;;;5036695;28;20045;-69
2022/12/20 06:54:47;;;;;;;2.72;1.65;;;10.60;99.90;;;;;;5036515;28;20080;-68
2022/12/20 06:57:13;;;;;;;4.07;1.88;;;10.60;99.90;;;;;;5035772;28;20041;-69
2022/12/20 06:59:39;;;;;;;3.45;1.80;;;10.50;99.90;;;;;;5036614;28;20046;-70
2022/12/20 07:02:05;;;;;;;4.07;1.58;;;10.50;99.90;;;;;;5036357;28;20514;-69
2022/12/20 07:04:31;;;;;;;7.72;2.13;;;10.40;99.90;;;;;;5036475;28;20045;-69
2022/12/20 07:06:57;;;;;;;5.90;2.25;;;10.50;99.90;;;;;;5036394;28;20042;-68
2022/12/20 07:09:23;;;;;;;6.95;2.42;;;10.50;99.90;;;;;;5036143;28;20037;-68
2022/12/20 07:11:48;;;;;;;6.72;2.92;;;10.50;99.90;;;;;;5036175;28;20107;-68
2022/12/20 07:14:14;;;;;;;18.02;7.32;;;10.50;99.90;;;;;;5036062;28;20536;-69
2022/12/20 07:16:42;;;;;;;12.05;4.95;;;10.50;99.90;;;;;;5036102;28;20075;-68
2022/12/20 07:19:11;;;;;;;7.78;2.90;;;10.40;99.90;;;;;;5035982;28;20503;-69
2022/12/20 07:21:37;;;;;;;31.35;16.80;;;10.40;99.90;;;;;;5036005;28;20048;-69
2022/12/20 07:24:03;;;;;;;6.70;4.20;;;10.50;99.90;;;;;;5035896;28;20497;-69
2022/12/20 07:26:29;;;;;;;8.60;4.13;;;10.50;99.90;;;;;;5034238;28;20052;-68
2022/12/20 07:28:55;;;;;;;3.58;2.65;;;10.60;99.90;;;;;;5035185;28;20037;-69
2022/12/20 07:31:21;;;;;;;5.78;2.75;;;10.60;99.90;;;;;;5035508;28;20052;-69
2022/12/20 07:33:46;;;;;;;5.50;3.47;;;10.70;99.90;;;;;;5035768;28;20052;-69
2022/12/20 07:36:14;;;;;;;7.53;4.28;;;10.70;99.90;;;;;;5035462;28;20411;-69
2022/12/20 07:38:40;;;;;;;2.95;1.83;;;10.60;99.90;;;;;;5034530;28;20044;-69
2022/12/20 07:41:08;;;;;;;3.58;1.35;;;10.60;99.90;;;;;;5035712;28;20037;-69
2022/12/20 07:43:34;;;;;;;2.88;1.30;;;10.60;99.90;;;;;;5034354;28;20045;-69
2022/12/20 07:45:59;;;;;;;3.63;1.50;;;10.60;99.90;;;;;;5034123;28;20484;-70
2022/12/20 07:48:25;;;;;;;2.95;1.73;;;10.70;99.90;;;;;;5034070;28;20038;-69
2022/12/20 07:51:04;;;;;;;4.30;1.50;;;10.80;99.90;;;;;;5034831;28;20083;-69
2022/12/20 07:53:31;;;;;;;10.85;6.95;;;10.80;99.90;;;;;;5034664;28;20041;-69
2022/12/20 07:55:59;;;;;;;5.22;2.55;;;10.80;99.90;;;;;;5035284;28;20102;-69
2022/12/20 07:58:26;;;;;;;4.78;2.45;;;10.80;99.90;;;;;;5034908;28;20445;-69
2022/12/20 08:00:52;;;;;;;4.55;2.10;;;10.90;99.90;;;;;;5035260;28;20037;-69
2022/12/20 08:03:19;;;;;;;2.95;1.95;;;10.90;99.90;;;;;;5033986;28;20388;-69
2022/12/20 08:05:50;;;;;;;2.30;1.42;;;10.90;99.90;;;;;;5034021;28;20037;-69
2022/12/20 08:08:16;;;;;;;2.75;1.23;;;10.90;99.90;;;;;;5033707;28;20033;-69
2022/12/20 08:10:42;;;;;;;4.07;1.30;;;11.00;99.90;;;;;;5033370;28;20049;-69
2022/12/20 08:13:08;;;;;;;4.20;2.15;;;11.00;99.90;;;;;;5034770;28;20073;-69
2022/12/20 08:15:35;;;;;;;4.43;2.08;;;11.00;99.90;;;;;;5033720;28;20099;-69
2022/12/20 08:18:01;;;;;;;4.32;1.92;;;10.90;99.90;;;;;;5034466;28;20037;-68
2022/12/20 08:20:27;;;;;;;5.20;2.20;;;10.90;99.90;;;;;;5034799;28;20028;-69
2022/12/20 08:22:53;;;;;;;3.10;2.10;;;11.00;99.90;;;;;;5034814;28;20049;-69
2022/12/20 08:25:20;;;;;;;7.88;3.45;;;11.00;99.90;;;;;;5034785;28;20077;-69
2022/12/20 08:27:46;;;;;;;5.50;2.00;;;11.00;99.90;;;;;;5034918;28;20103;-69
2022/12/20 08:30:12;;;;;;;2.53;1.50;;;11.00;99.90;;;;;;5034666;28;20052;-69
2022/12/20 08:32:38;;;;;;;5.00;1.67;;;11.00;99.90;;;;;;5034674;28;20041;-69
2022/12/20 08:35:05;;;;;;;3.58;1.92;;;11.00;99.90;;;;;;5034515;28;20049;-69
2022/12/20 08:37:30;;;;;;;14.43;5.13;;;11.10;99.90;;;;;;5033213;28;20048;-69
2022/12/20 08:39:56;;;;;;;6.55;3.30;;;11.10;99.90;;;;;;5034702;28;20049;-69
2022/12/20 08:42:22;;;;;;;4.15;2.42;;;11.20;99.90;;;;;;5034747;28;20033;-69
2022/12/20 08:44:48;;;;;;;13.80;5.82;;;11.20;99.90;;;;;;5034560;28;20400;-69
2022/12/20 08:47:14;;;;;;;11.35;5.50;;;11.20;99.90;;;;;;5029424;28;20149;-69
2022/12/20 08:49:40;;;;;;;8.65;3.67;;;11.20;99.90;;;;;;5025661;28;20049;-69
2022/12/20 08:52:06;;;;;;;13.65;5.20;;;11.20;99.90;;;;;;5032832;28;20481;-69
2022/12/20 08:54:31;;;;;;;8.77;4.05;;;11.20;99.90;;;;;;5034466;28;20080;-69
2022/12/20 08:56:57;;;;;;;2.95;1.55;;;11.20;99.90;;;;;;5034392;28;20083;-69
2022/12/20 08:59:23;;;;;;;13.18;4.10;;;11.30;99.90;;;;;;5034247;28;20043;-69
2022/12/20 09:02:41;;;;;;;19.25;7.85;;;11.30;99.90;;;;;;5034224;28;20117;-69
2022/12/20 09:05:07;;;;;;;20.92;8.65;;;11.30;99.90;;;;;;5034396;28;20037;-69
2022/12/20 09:07:33;;;;;;;12.98;5.30;;;11.30;99.90;;;;;;5034158;28;20030;-69
2022/12/20 09:09:59;;;;;;;4.93;2.13;;;11.40;99.90;;;;;;5033872;28;20038;-69
2022/12/20 09:12:24;;;;;;;7.72;2.80;;;11.40;99.90;;;;;;5033871;28;20048;-69
2022/12/20 09:14:50;;;;;;;8.45;2.95;;;11.40;99.90;;;;;;5034022;28;20507;-69
2022/12/20 09:17:16;;;;;;;2.85;1.02;;;11.40;99.90;;;;;;5033982;28;20550;-69
2022/12/20 09:19:41;;;;;;;2.25;1.23;;;11.50;99.90;;;;;;5033730;28;20037;-68
2022/12/20 09:22:07;;;;;;;3.08;1.98;;;11.50;99.90;;;;;;5034183;28;20107;-68
2022/12/20 09:24:33;;;;;;;4.35;1.50;;;11.40;99.90;;;;;;5034086;28;20508;-69
2022/12/20 09:26:59;;;;;;;3.25;1.30;;;11.40;99.90;;;;;;5033930;28;20389;-69
2022/12/20 09:29:24;;;;;;;2.08;1.23;;;11.50;99.90;;;;;;5032461;28;20073;-69
2022/12/20 09:31:50;;;;;;;3.28;1.48;;;11.50;99.90;;;;;;5033890;28;20045;-68
2022/12/20 09:34:16;;;;;;;1.67;1.05;;;11.50;99.90;;;;;;5033698;28;20075;-68
2022/12/20 09:36:41;;;;;;;2.03;0.90;;;11.50;99.90;;;;;;5033785;28;20066;-68
2022/12/20 09:39:08;;;;;;;4.40;1.05;;;11.50;99.90;;;;;;5033996;28;20477;-68
2022/12/20 09:41:38;;;;;;;3.03;1.35;;;11.50;99.90;;;;;;5033634;28;20049;-68
2022/12/20 09:44:14;;;;;;;4.63;2.10;;;11.60;99.90;;;;;;5033856;28;20033;-68
2022/12/20 09:46:41;;;;;;;3.38;1.75;;;11.50;99.90;;;;;;5033997;28;20499;-69
2022/12/20 09:49:14;;;;;;;3.47;1.60;;;11.50;99.90;;;;;;5033785;28;20043;-68
2022/12/20 09:52:24;;;;;;;3.03;1.67;;;11.60;99.90;;;;;;5033645;28;20072;-69
2022/12/20 09:55:14;;;;;;;4.30;2.22;;;11.60;99.90;;;;;;5024834;28;20041;-68
2022/12/20 09:58:12;;;;;;;3.40;1.20;;;11.60;99.90;;;;;;5032517;28;20037;-69
2022/12/20 10:00:43;;;;;;;4.78;1.65;;;11.60;99.90;;;;;;5033788;28;20041;-69
2022/12/20 10:03:34;;;;;;;2.08;1.40;;;11.60;99.90;;;;;;5033729;28;20033;-69
2022/12/20 10:06:20;;;;;;;4.57;2.22;;;11.60;99.90;;;;;;5006891;28;20512;-69
2022/12/20 10:08:55;;;;;;;2.63;1.63;;;11.60;99.90;;;;;;5013389;28;20034;-69
2022/12/20 10:11:38;;;;;;;3.63;1.85;;;11.70;99.90;;;;;;5013832;28;20119;-68
2022/12/20 10:14:26;;;;;;;2.85;1.40;;;11.70;99.90;;;;;;5013874;28;20038;-68
2022/12/20 10:17:03;;;;;;;2.05;1.15;;;11.70;99.90;;;;;;5017041;28;20041;-69
2022/12/20 10:19:59;;;;;;;2.55;1.35;;;11.70;99.90;;;;;;5033759;28;20381;-69
2022/12/20 10:22:53;;;;;;;4.28;1.45;;;11.70;99.90;;;;;;5033369;28;20504;-69
2022/12/20 10:25:22;;;;;;;3.30;1.70;;;11.80;99.90;;;;;;5032783;28;20045;-69
2022/12/20 10:27:52;;;;;;;3.75;1.30;;;11.90;99.90;;;;;;5033685;28;20037;-69
2022/12/20 10:30:21;;;;;;;3.05;1.20;;;11.90;99.90;;;;;;5033653;28;20041;-69
2022/12/20 10:32:53;;;;;;;3.33;1.50;;;11.90;99.90;;;;;;5035773;28;20041;-69
2022/12/20 10:35:35;;;;;;;1.55;1.00;;;11.90;99.90;;;;;;5036833;28;20569;-68
2022/12/20 10:38:02;;;;;;;3.05;1.00;;;11.90;99.90;;;;;;5036840;28;20522;-69
2022/12/20 10:40:59;;;;;;;2.53;1.30;;;11.90;99.90;;;;;;5036900;28;20075;-69
2022/12/20 10:43:26;;;;;;;6.95;1.67;;;11.90;99.90;;;;;;5036889;28;20033;-68
2022/12/20 10:46:01;;;;;;;2.25;1.20;;;11.90;99.90;;;;;;5036833;28;20037;-69
2022/12/20 10:48:39;;;;;;;11.52;1.65;;;11.90;99.90;;;;;;5036726;28;20123;-69
2022/12/20 10:51:07;;;;;;;4.97;1.35;;;11.90;99.90;;;;;;5035967;28;20049;-69
2022/12/20 10:53:33;;;;;;;2.88;1.02;;;12.00;99.90;;;;;;5036464;28;20405;-69
2022/12/20 10:56:20;;;;;;;4.00;0.90;;;12.00;99.90;;;;;;5036573;28;20045;-68
2022/12/20 10:58:56;;;;;;;2.08;1.17;;;12.00;99.90;;;;;;5036481;28;20039;-69
2022/12/20 11:01:27;;;;;;;1.92;1.10;;;12.00;99.90;;;;;;5036438;28;20103;-69
2022/12/20 11:03:55;;;;;;;;;;;12.00;99.90;;;;;;5036767;28;20128;-69
2022/12/20 11:06:24;;;;;;;2.17;1.27;;;12.00;99.90;;;;;;5036414;28;19955;-69
2022/12/20 11:08:50;;;;;;;3.15;1.27;;;12.00;99.90;;;;;;5036365;28;20124;-69
2022/12/20 11:11:22;;;;;;;3.97;1.20;;;12.00;99.90;;;;;;5036066;28;20137;-69
2022/12/20 11:13:49;;;;;;;10.05;1.80;;;12.00;99.90;;;;;;5036367;28;20452;-69
2022/12/20 11:16:29;;;;;;;5.22;1.30;;;12.00;99.90;;;;;;5036172;28;20121;-69
2022/12/20 11:19:32;;;;;;;6.60;1.73;;;12.00;99.90;;;;;;5036218;28;20045;-69
2022/12/20 11:22:36;;;;;;;5.68;1.67;;;12.00;99.90;;;;;;5035982;28;20120;-69
2022/12/20 11:25:39;;;;;;;2.08;1.02;;;12.10;99.90;;;;;;5036019;28;20037;-69
2022/12/20 11:28:29;;;;;;;3.92;1.25;;;12.20;99.90;;;;;;5016302;28;20401;-69
2022/12/20 11:31:00;;;;;;;11.05;5.25;;;12.20;99.90;;;;;;5016839;28;20049;-68
2022/12/20 11:33:44;;;;;;;16.02;6.28;;;12.20;99.90;;;;;;5035928;28;20481;-69
2022/12/20 11:36:21;;;;;;;20.27;7.05;;;12.20;99.90;;;;;;5035596;28;20083;-69
2022/12/20 11:38:57;;;;;;;22.88;7.70;;;12.20;99.90;;;;;;5035860;28;20120;-68
2022/12/20 11:41:41;;;;;;;24.52;7.78;;;12.20;99.90;;;;;;5035718;28;20099;-69
2022/12/20 11:44:31;;;;;;;48.55;16.52;;;12.20;99.90;;;;;;5035339;28;20067;-69
2022/12/20 11:47:19;;;;;;;49.65;17.58;;;12.20;99.90;;;;;;5015986;28;20449;-69
2022/12/20 11:49:47;;;;;;;14.52;5.68;;;12.20;99.90;;;;;;5015563;28;20088;-69
2022/12/20 11:52:42;;;;;;;23.45;7.90;;;12.10;99.90;;;;;;5014777;28;20048;-69
2022/12/20 11:55:20;;;;;;;15.18;5.30;;;12.10;99.90;;;;;;5015662;28;20034;-69
2022/12/20 12:01:07;;;;;;;16.10;6.80;;;12.00;99.90;;;;;;5035531;28;20088;-69
2022/12/20 12:03:36;;;;;;;8.43;3.70;;;12.00;99.90;;;;;;5035459;28;20037;-69
2022/12/20 12:06:20;;;;;;;6.60;3.08;;;12.10;99.90;;;;;;5035461;28;20506;-68
2022/12/20 12:09:07;;;;;;;5.22;2.42;;;12.30;99.90;;;;;;5035272;28;20026;-69
2022/12/20 12:11:38;;;;;;;15.27;6.43;;;12.20;99.90;;;;;;5034885;28;20080;-69
2022/12/20 12:14:05;;;;;;;10.35;3.88;;;12.30;99.90;;;;;;5035016;28;20392;-69
2022/12/20 12:16:43;;;;;;;8.35;4.05;;;12.40;99.90;;;;;;5033591;28;20037;-69
2022/12/20 12:19:11;;;;;;;15.05;6.47;;;12.50;99.90;;;;;;5033538;28;20361;-69
2022/12/20 12:21:46;;;;;;;8.90;3.88;;;12.40;99.90;;;;;;5035015;28;20040;-69
2022/12/20 12:24:22;;;;;;;3.55;2.08;;;12.50;99.90;;;;;;5034775;28;20072;-69
2022/12/20 12:26:48;;;;;;;13.18;4.93;;;12.40;99.90;;;;;;5035292;28;20083;-69
2022/12/20 12:29:18;;;;;;;4.45;2.25;;;12.40;99.90;;;;;;5033685;28;20049;-69
2022/12/20 12:31:47;;;;;;;5.88;2.33;;;12.40;99.90;;;;;;5013837;28;20050;-69
2022/12/20 12:34:44;;;;;;;10.35;4.47;;;12.40;99.90;;;;;;5013747;28;20030;-69
2022/12/20 12:37:43;;;;;;;78.95;29.95;;;12.30;99.90;;;;;;5014961;28;20041;-69
2022/12/20 12:40:19;;;;;;;39.75;16.52;;;12.20;99.90;;;;;;5013584;28;20037;-69
2022/12/20 12:43:00;;;;;;;11.75;6.20;;;12.10;99.90;;;;;;5014837;28;20048;-69
2022/12/20 12:45:32;;;;;;;10.75;4.65;;;12.20;99.90;;;;;;5031402;28;20514;-69
2022/12/20 12:48:15;;;;;;;22.05;8.50;;;12.40;99.90;;;;;;5034532;28;20362;-69
2022/12/20 12:50:47;;;;;;;5.88;2.80;;;12.40;99.90;;;;;;5034341;28;20060;-69
2022/12/20 12:53:19;;;;;;;13.70;7.07;;;12.20;99.90;;;;;;5018952;28;20032;-69
2022/12/20 12:55:50;;;;;;;14.30;6.60;;;12.20;99.90;;;;;;5032346;28;20040;-69
2022/12/20 12:58:22;;;;;;;5.35;2.08;;;12.30;99.90;;;;;;5034499;28;20139;-69
2022/12/20 13:00:59;;;;;;;3.50;1.65;;;12.40;99.90;;;;;;5034439;28;20045;-69
2022/12/20 13:03:44;;;;;;;3.33;1.48;;;12.40;99.90;;;;;;5034429;28;20041;-69
2022/12/20 13:06:22;;;;;;;2.80;1.20;;;12.40;99.90;;;;;;5034308;28;20485;-69
2022/12/20 13:08:55;;;;;;;2.47;1.35;;;12.50;99.90;;;;;;5034261;28;20030;-69
2022/12/20 13:11:33;;;;;;;1.50;0.90;;;12.30;99.90;;;;;;5034119;28;20048;-69
2022/12/20 13:14:16;;;;;;;3.20;1.25;;;12.40;99.90;;;;;;5033977;28;20507;-69
2022/12/20 13:16:46;;;;;;;3.85;1.80;;;12.40;99.90;;;;;;5033973;28;20041;-69
2022/12/20 13:19:24;;;;;;;6.05;2.05;;;12.40;99.90;;;;;;5033958;28;20121;-69